createdAt,value
2018-05-04T00:02:21.997Z,8.67
2018-05-04T00:04:49.831Z,8.90
2018-05-04T00:07:18.543Z,8.60
2018-05-04T00:09:46.557Z,11.50
2018-05-04T00:12:14.257Z,8.23
2018-05-04T00:14:41.944Z,9.10
2018-05-04T00:17:09.647Z,8.30
2018-05-04T00:19:37.404Z,8.53
2018-05-04T00:22:05.339Z,8.53
2018-05-04T00:24:33.896Z,10.60
2018-05-04T00:27:01.856Z,9.87
2018-05-04T00:29:29.677Z,9.70
2018-05-04T00:31:57.417Z,8.33
2018-05-04T00:34:25.260Z,8.47
2018-05-04T00:36:55.277Z,9.17
2018-05-04T00:39:23.077Z,9.27
2018-05-04T00:41:50.937Z,8.57
2018-05-04T00:44:19.017Z,10.50
2018-05-04T00:46:46.881Z,9.90
2018-05-04T00:49:14.675Z,8.80
2018-05-04T00:51:43.544Z,12.93
2018-05-04T00:54:23.941Z,10.83
2018-05-04T00:56:51.995Z,11.10
2018-05-04T00:59:19.834Z,9.97
2018-05-04T01:01:48.036Z,9.40
2018-05-04T01:04:16.295Z,10.90
2018-05-04T01:06:44.275Z,13.03
2018-05-04T01:09:12.215Z,9.40
2018-05-04T01:11:40.199Z,15.43
2018-05-04T01:14:07.956Z,12.43
2018-05-04T01:16:35.697Z,10.97
2018-05-04T01:19:03.496Z,8.93
2018-05-04T01:21:31.296Z,12.13
2018-05-04T01:23:59.299Z,9.53
2018-05-04T01:26:27.198Z,10.13
2018-05-04T01:28:56.739Z,9.37
2018-05-04T01:31:24.604Z,11.60
2018-05-04T01:33:52.556Z,10.17
2018-05-04T01:36:21.177Z,11.57
2018-05-04T01:38:49.695Z,10.83
2018-05-04T01:41:17.599Z,10.03
2018-05-04T01:43:45.457Z,12.37
2018-05-04T01:46:13.996Z,9.97
2018-05-04T01:48:41.958Z,11.43
2018-05-04T01:51:09.683Z,11.83
2018-05-04T01:53:37.496Z,10.77
2018-05-04T01:56:06.136Z,10.57
2018-05-04T01:58:33.876Z,12.00
2018-05-04T02:01:01.898Z,11.10
2018-05-04T02:03:29.906Z,12.50
2018-05-04T02:05:57.836Z,11.00
2018-05-04T02:08:25.696Z,10.77
2018-05-04T02:10:53.637Z,12.40
2018-05-04T02:13:21.525Z,9.93
2018-05-04T02:15:49.386Z,10.43
2018-05-04T02:18:17.436Z,11.97
2018-05-04T02:20:45.280Z,9.80
2018-05-04T02:23:13.038Z,12.33
2018-05-04T02:25:41.414Z,11.43
2018-05-04T02:28:09.234Z,10.70
2018-05-04T02:30:37.034Z,11.83
2018-05-04T02:33:06.355Z,13.40
2018-05-04T02:35:34.615Z,11.77
2018-05-04T02:38:03.354Z,12.00
2018-05-04T02:40:31.614Z,10.60
2018-05-04T02:43:01.654Z,12.73
2018-05-04T02:45:29.596Z,13.17
2018-05-04T02:47:57.455Z,12.10
2018-05-04T02:50:25.274Z,9.83
2018-05-04T02:52:53.737Z,10.87
2018-05-04T02:55:21.756Z,9.90
2018-05-04T02:57:49.662Z,10.40
2018-05-04T03:00:18.074Z,11.83
2018-05-04T03:02:45.975Z,10.17
2018-05-04T03:05:13.814Z,11.33
2018-05-04T03:07:41.577Z,10.83
2018-05-04T03:10:09.476Z,9.47
2018-05-04T03:12:37.197Z,10.97
2018-05-04T03:15:05.336Z,10.23
2018-05-04T03:17:34.018Z,9.97
2018-05-04T03:20:01.916Z,10.43
2018-05-04T03:22:29.756Z,9.87
2018-05-04T03:24:57.656Z,10.83
2018-05-04T03:27:25.423Z,11.10
2018-05-04T03:29:53.257Z,10.63
2018-05-04T03:32:22.295Z,11.90
2018-05-04T03:34:50.135Z,10.70
2018-05-04T03:37:18.941Z,11.93
2018-05-04T03:39:46.820Z,11.40
2018-05-04T03:42:14.655Z,10.73
2018-05-04T03:44:43.275Z,10.60
2018-05-04T03:47:11.756Z,12.37
2018-05-04T03:49:39.737Z,12.10
2018-05-04T03:52:07.568Z,14.13
2018-05-04T03:54:35.535Z,13.00
2018-05-04T03:57:14.875Z,15.40
2018-05-04T03:59:54.455Z,10.67
2018-05-04T04:05:05.857Z,12.33
2018-05-04T04:07:33.875Z,11.93
2018-05-04T04:10:04.376Z,11.77
2018-05-04T04:12:32.428Z,10.63
2018-05-04T04:15:00.356Z,11.47
2018-05-04T04:17:28.539Z,10.97
2018-05-04T04:19:56.498Z,11.63
2018-05-04T04:22:24.268Z,13.80
2018-05-04T04:24:52.130Z,11.03
2018-05-04T04:27:20.194Z,11.40
2018-05-04T04:29:48.201Z,11.00
2018-05-04T04:32:16.294Z,10.90
2018-05-04T04:34:44.335Z,11.03
2018-05-04T04:37:12.575Z,12.23
2018-05-04T04:39:40.423Z,12.43
2018-05-04T04:42:08.744Z,13.00
2018-05-04T04:44:36.720Z,11.10
2018-05-04T04:47:04.533Z,12.37
2018-05-04T04:49:33.238Z,11.03
2018-05-04T04:52:01.177Z,12.90
2018-05-04T04:54:29.118Z,10.30
2018-05-04T04:56:57.157Z,11.27
2018-05-04T04:59:25.018Z,13.00
2018-05-04T05:01:52.993Z,12.03
2018-05-04T05:04:20.799Z,14.97
2018-05-04T05:06:48.518Z,12.10
2018-05-04T05:09:16.437Z,12.53
2018-05-04T05:11:44.221Z,12.43
2018-05-04T05:14:11.937Z,14.50
2018-05-04T05:16:39.573Z,11.00
2018-05-04T05:19:07.537Z,13.30
2018-05-04T05:21:35.317Z,11.30
2018-05-04T05:24:03.118Z,15.67
2018-05-04T05:26:31.117Z,11.33
2018-05-04T05:28:59.056Z,13.13
2018-05-04T05:31:26.896Z,12.53
2018-05-04T05:33:54.898Z,12.80
2018-05-04T05:36:22.695Z,14.40
2018-05-04T05:38:50.563Z,14.43
2018-05-04T05:41:18.482Z,14.03
2018-05-04T05:43:46.303Z,12.90
2018-05-04T05:46:14.158Z,11.43
2018-05-04T05:48:42.123Z,11.70
2018-05-04T05:51:09.978Z,15.00
2018-05-04T05:53:37.938Z,13.93
2018-05-04T05:56:05.858Z,15.57
2018-05-04T05:58:33.617Z,13.73
2018-05-04T06:01:01.655Z,13.77
2018-05-04T06:03:29.615Z,11.93
2018-05-04T06:05:57.414Z,12.80
2018-05-04T06:08:26.695Z,12.30
2018-05-04T06:10:54.690Z,13.47
2018-05-04T06:13:22.578Z,15.23
2018-05-04T06:15:50.523Z,14.83
2018-05-04T06:18:18.462Z,14.20
2018-05-04T06:20:46.677Z,13.77
2018-05-04T06:23:14.640Z,12.37
2018-05-04T06:25:42.880Z,11.67
2018-05-04T06:28:10.859Z,12.70
2018-05-04T06:30:38.819Z,12.80
2018-05-04T06:33:06.745Z,13.57
2018-05-04T06:35:34.584Z,12.87
2018-05-04T06:38:02.522Z,12.33
2018-05-04T06:40:31.011Z,12.67
2018-05-04T06:43:00.302Z,15.67
2018-05-04T06:45:28.261Z,12.23
2018-05-04T06:47:56.099Z,16.17
2018-05-04T06:50:23.920Z,12.33
2018-05-04T06:52:51.940Z,13.40
2018-05-04T06:55:19.699Z,11.90
2018-05-04T06:57:47.619Z,13.33
2018-05-04T07:00:17.424Z,14.43
2018-05-04T07:02:45.256Z,12.23
2018-05-04T07:05:13.115Z,15.50
2018-05-04T07:07:41.320Z,14.10
2018-05-04T07:10:09.235Z,15.23
2018-05-04T07:12:37.156Z,17.03
2018-05-04T07:15:05.073Z,15.33
2018-05-04T07:17:32.915Z,12.27
2018-05-04T07:20:01.456Z,12.87
2018-05-04T07:22:30.155Z,13.80
2018-05-04T07:24:58.035Z,15.57
2018-05-04T07:27:25.775Z,14.37
2018-05-04T07:29:53.584Z,14.87
2018-05-04T07:32:21.437Z,13.97
2018-05-04T07:34:49.237Z,13.73
2018-05-04T07:37:17.116Z,14.67
2018-05-04T07:39:45.056Z,18.60
2018-05-04T07:42:12.780Z,15.20
2018-05-04T07:44:40.676Z,16.27
2018-05-04T07:47:08.436Z,16.43
2018-05-04T07:49:36.235Z,17.87
2018-05-04T07:52:04.155Z,24.03
2018-05-04T07:54:31.999Z,26.87
2018-05-04T07:56:59.819Z,20.20
2018-05-04T07:59:27.883Z,23.30
2018-05-04T08:01:55.722Z,19.77
2018-05-04T08:04:23.567Z,26.10
2018-05-04T08:06:51.520Z,24.87
2018-05-04T08:09:19.320Z,26.77
2018-05-04T08:11:47.320Z,19.43
2018-05-04T08:14:16.082Z,19.50
2018-05-04T08:16:43.860Z,19.70
2018-05-04T08:19:13.496Z,22.33
2018-05-04T08:21:41.342Z,23.30
2018-05-04T08:24:09.179Z,22.50
2018-05-04T08:26:37.019Z,19.53
2018-05-04T08:29:05.081Z,22.47
2018-05-04T08:31:32.980Z,18.77
2018-05-04T08:34:01.160Z,24.53
2018-05-04T08:36:29.121Z,21.60
2018-05-04T08:38:56.960Z,19.53
2018-05-04T08:41:25.040Z,22.20
2018-05-04T08:43:53.180Z,19.57
2018-05-04T08:46:21.040Z,21.17
2018-05-04T08:48:48.960Z,19.77
2018-05-04T08:51:17.121Z,18.60
2018-05-04T08:53:44.961Z,20.53
2018-05-04T08:56:12.902Z,18.33
2018-05-04T08:58:40.932Z,16.67
2018-05-04T09:01:09.015Z,20.03
2018-05-04T09:03:36.964Z,17.37
2018-05-04T09:06:05.374Z,17.97
2018-05-04T09:08:33.175Z,16.00
2018-05-04T09:11:00.997Z,17.17
2018-05-04T09:13:29.137Z,16.70
2018-05-04T09:15:57.137Z,17.70
2018-05-04T09:18:24.995Z,21.43
2018-05-04T09:20:53.015Z,16.90
2018-05-04T09:23:20.814Z,18.97
2018-05-04T09:25:48.815Z,15.80
2018-05-04T09:28:16.795Z,17.20
2018-05-04T09:30:44.763Z,18.10
2018-05-04T09:33:12.655Z,19.57
2018-05-04T09:35:40.455Z,16.27
2018-05-04T09:38:08.335Z,16.13
2018-05-04T09:40:36.355Z,15.60
2018-05-04T09:43:04.314Z,16.73
2018-05-04T09:45:34.117Z,16.53
2018-05-04T09:48:01.936Z,16.50
2018-05-04T09:50:29.877Z,16.17
2018-05-04T09:52:57.815Z,15.77
2018-05-04T09:55:25.695Z,15.47
2018-05-04T09:57:53.535Z,16.93
2018-05-04T10:00:21.190Z,16.37
2018-05-04T10:02:49.176Z,16.70
2018-05-04T10:05:17.236Z,15.70
2018-05-04T10:07:45.037Z,15.13
2018-05-04T10:10:12.796Z,17.93
2018-05-04T10:12:40.736Z,16.20
2018-05-04T10:15:08.516Z,16.40
2018-05-04T10:17:36.259Z,17.23
2018-05-04T10:20:04.183Z,15.93
2018-05-04T10:22:31.936Z,18.50
2018-05-04T10:24:59.736Z,16.20
2018-05-04T10:27:27.775Z,16.87
2018-05-04T10:29:55.855Z,17.20
2018-05-04T10:32:23.776Z,14.80
2018-05-04T10:34:51.756Z,17.50
2018-05-04T10:37:19.696Z,15.37
2018-05-04T10:39:47.536Z,17.60
2018-05-04T10:42:15.416Z,15.53
2018-05-04T10:44:43.395Z,14.83
2018-05-04T10:47:11.196Z,15.23
2018-05-04T10:49:39.157Z,15.10
2018-05-04T10:52:07.256Z,15.07
2018-05-04T10:54:35.416Z,15.30
2018-05-04T10:57:03.556Z,14.37
2018-05-04T10:59:31.356Z,16.33
2018-05-04T11:01:59.577Z,14.20
2018-05-04T11:04:27.438Z,13.73
2018-05-04T11:06:55.900Z,14.27
2018-05-04T11:09:23.775Z,14.47
2018-05-04T11:11:51.818Z,15.60
2018-05-04T11:14:19.677Z,15.00
2018-05-04T11:16:47.657Z,13.97
2018-05-04T11:19:15.658Z,12.33
2018-05-04T11:21:43.599Z,13.20
2018-05-04T11:24:11.517Z,12.83
2018-05-04T11:26:39.498Z,15.27
2018-05-04T11:29:07.479Z,14.53
2018-05-04T11:31:35.257Z,13.83
2018-05-04T11:34:03.197Z,12.67
2018-05-04T11:36:31.877Z,12.60
2018-05-04T11:38:59.720Z,12.23
2018-05-04T11:41:29.638Z,12.03
2018-05-04T11:43:58.495Z,12.57
2018-05-04T11:46:26.435Z,11.87
2018-05-04T11:48:56.197Z,12.30
2018-05-04T11:51:26.514Z,11.73
2018-05-04T11:53:54.455Z,12.67
2018-05-04T11:56:22.397Z,13.27
2018-05-04T11:58:50.493Z,12.83
2018-05-04T12:01:18.317Z,17.37
2018-05-04T12:03:46.297Z,12.23
2018-05-04T12:06:14.297Z,12.30
2018-05-04T12:08:42.438Z,12.40
2018-05-04T12:11:10.641Z,13.67
2018-05-04T12:13:38.581Z,14.10
2018-05-04T12:16:06.499Z,11.97
2018-05-04T12:18:34.296Z,12.30
2018-05-04T12:21:02.277Z,13.17
2018-05-04T12:23:30.236Z,11.60
2018-05-04T12:25:58.237Z,12.37
2018-05-04T12:28:26.137Z,10.60
2018-05-04T12:30:54.856Z,12.63
2018-05-04T12:33:22.897Z,12.20
2018-05-04T12:35:50.738Z,12.60
2018-05-04T12:38:19.257Z,11.30
2018-05-04T12:40:47.438Z,14.47
2018-05-04T12:43:15.397Z,12.63
2018-05-04T12:45:44.116Z,10.60
2018-05-04T12:48:12.376Z,9.93
2018-05-04T12:50:40.416Z,12.97
2018-05-04T12:53:08.636Z,11.53
2018-05-04T12:55:36.538Z,13.13
2018-05-04T12:58:04.499Z,12.97
2018-05-04T13:00:32.978Z,10.83
2018-05-04T13:03:01.675Z,12.50
2018-05-04T13:05:29.575Z,13.00
2018-05-04T13:07:57.658Z,11.03
2018-05-04T13:10:25.615Z,12.43
2018-05-04T13:12:53.540Z,13.50
2018-05-04T13:15:21.535Z,11.10
2018-05-04T13:17:49.535Z,10.43
2018-05-04T13:20:17.400Z,14.17
2018-05-04T13:22:45.375Z,11.73
2018-05-04T13:25:13.435Z,15.07
2018-05-04T13:27:41.398Z,11.60
2018-05-04T13:30:09.494Z,12.50
2018-05-04T13:32:37.676Z,14.90
2018-05-04T13:35:05.463Z,14.50
2018-05-04T13:37:33.335Z,13.67
2018-05-04T13:40:01.322Z,14.40
2018-05-04T13:42:29.595Z,11.23
2018-05-04T13:44:57.576Z,12.13
2018-05-04T13:47:25.577Z,13.07
2018-05-04T13:49:53.617Z,11.83
2018-05-04T13:52:21.515Z,11.37
2018-05-04T13:54:49.436Z,12.83
2018-05-04T13:57:17.375Z,11.17
2018-05-04T13:59:45.319Z,11.37
2018-05-04T14:02:14.183Z,11.40
2018-05-04T14:04:42.244Z,11.47
2018-05-04T14:07:10.332Z,12.10
2018-05-04T14:09:38.262Z,11.03
2018-05-04T14:12:06.623Z,10.13
2018-05-04T14:14:35.283Z,11.33
2018-05-04T14:17:03.262Z,12.37
2018-05-04T14:19:31.182Z,12.63
2018-05-04T14:21:59.242Z,10.43
2018-05-04T14:24:27.228Z,15.27
2018-05-04T14:26:55.604Z,10.07
2018-05-04T14:29:23.543Z,11.83
2018-05-04T14:31:51.458Z,12.57
2018-05-04T14:34:19.539Z,8.87
2018-05-04T14:36:47.778Z,10.90
2018-05-04T14:39:15.715Z,10.27
2018-05-04T14:41:44.595Z,11.87
2018-05-04T14:44:12.474Z,12.93
2018-05-04T14:46:41.134Z,11.47
2018-05-04T14:49:09.554Z,10.30
2018-05-04T14:51:38.235Z,11.47
2018-05-04T14:54:06.299Z,12.47
2018-05-04T14:56:34.938Z,13.70
2018-05-04T14:59:03.258Z,13.03
2018-05-04T15:01:31.339Z,11.93
2018-05-04T15:03:59.261Z,11.50
2018-05-04T15:06:27.179Z,11.37
2018-05-04T15:08:55.059Z,11.13
2018-05-04T15:11:23.098Z,13.20
2018-05-04T15:13:51.817Z,10.73
2018-05-04T15:16:19.843Z,10.47
2018-05-04T15:18:48.147Z,10.23
2018-05-04T15:21:16.360Z,10.47
2018-05-04T15:23:44.219Z,15.23
2018-05-04T15:26:12.300Z,10.70
2018-05-04T15:28:40.540Z,11.10
2018-05-04T15:31:11.139Z,12.53
2018-05-04T15:33:39.123Z,12.13
2018-05-04T15:36:07.060Z,10.73
2018-05-04T15:38:35.094Z,11.43
2018-05-04T15:41:03.315Z,13.33
2018-05-04T15:43:31.314Z,11.50
2018-05-04T15:45:59.332Z,11.90
2018-05-04T15:48:33.056Z,11.50
2018-05-04T15:51:06.537Z,12.00
2018-05-04T15:53:34.637Z,11.40
2018-05-04T15:56:02.576Z,11.80
2018-05-04T15:58:30.615Z,11.03
2018-05-04T16:00:58.816Z,12.40
2018-05-04T16:03:26.680Z,11.33
2018-05-04T16:05:55.380Z,11.23
2018-05-04T16:08:23.283Z,11.67
2018-05-04T16:10:51.680Z,11.67
2018-05-04T16:13:19.941Z,10.60
2018-05-04T16:15:47.941Z,10.43
2018-05-04T16:18:16.283Z,11.57
2018-05-04T16:20:44.244Z,10.50
2018-05-04T16:23:12.361Z,10.47
2018-05-04T16:25:41.080Z,11.63
2018-05-04T16:28:09.052Z,10.77
2018-05-04T16:30:37.362Z,10.33
2018-05-04T16:33:05.521Z,10.97
2018-05-04T16:35:33.461Z,11.30
2018-05-04T16:38:01.423Z,11.43
2018-05-04T16:40:29.763Z,11.63
2018-05-04T16:42:57.682Z,10.00
2018-05-04T16:45:25.621Z,11.50
2018-05-04T16:47:59.217Z,10.77
2018-05-04T16:50:27.161Z,10.43
2018-05-04T16:52:55.181Z,12.23
2018-05-04T16:55:23.101Z,10.03
2018-05-04T16:57:51.061Z,10.27
2018-05-04T17:00:18.804Z,12.07
2018-05-04T17:02:46.934Z,11.37
2018-05-04T17:05:16.996Z,10.70
2018-05-04T17:07:45.154Z,10.87
2018-05-04T17:10:13.454Z,11.07
2018-05-04T17:12:41.855Z,11.43
2018-05-04T17:15:09.755Z,11.30
2018-05-04T17:17:37.674Z,11.37
2018-05-04T17:20:05.577Z,10.70
2018-05-04T17:22:33.495Z,11.63
2018-05-04T17:25:01.513Z,10.60
2018-05-04T17:27:29.818Z,13.43
2018-05-04T17:29:57.795Z,13.77
2018-05-04T17:32:25.998Z,10.20
2018-05-04T17:34:54.294Z,13.03
2018-05-04T17:37:22.244Z,14.57
2018-05-04T17:39:50.174Z,11.50
2018-05-04T17:42:18.995Z,14.30
2018-05-04T17:44:46.915Z,12.43
2018-05-04T17:47:15.699Z,13.20
2018-05-04T17:49:43.935Z,12.07
2018-05-04T17:52:11.874Z,13.93
2018-05-04T17:54:41.155Z,13.90
2018-05-04T17:57:09.074Z,15.03
2018-05-04T17:59:36.996Z,13.43
2018-05-04T18:02:04.920Z,12.67
2018-05-04T18:04:32.799Z,15.50
2018-05-04T18:07:00.700Z,13.57
2018-05-04T18:09:28.760Z,15.47
2018-05-04T18:11:57.021Z,15.43
2018-05-04T18:14:25.063Z,14.07
2018-05-04T18:16:53.081Z,16.57
2018-05-04T18:19:21.020Z,13.80
2018-05-04T18:21:48.960Z,14.00
2018-05-04T18:24:16.961Z,16.63
2018-05-04T18:26:44.902Z,13.50
2018-05-04T18:29:13.021Z,13.77
2018-05-04T18:31:41.022Z,24.30
2018-05-04T18:34:09.042Z,19.83
2018-05-04T18:36:37.022Z,16.97
2018-05-04T18:39:05.848Z,16.50
2018-05-04T18:41:33.881Z,20.90
2018-05-04T18:44:01.821Z,17.10
2018-05-04T18:46:29.681Z,19.73
2018-05-04T18:48:57.622Z,21.27
2018-05-04T18:51:25.646Z,18.30
2018-05-04T18:53:54.362Z,17.83
2018-05-04T18:56:22.741Z,17.27
2018-05-04T18:58:50.682Z,19.80
2018-05-04T19:01:18.616Z,17.80
2018-05-04T19:03:46.979Z,19.00
2018-05-04T19:06:14.977Z,19.60
2018-05-04T19:08:42.876Z,18.53
2018-05-04T19:11:10.757Z,20.30
2018-05-04T19:13:38.736Z,18.00
2018-05-04T19:16:06.619Z,21.03
2018-05-04T19:18:34.576Z,18.60
2018-05-04T19:21:02.616Z,19.33
2018-05-04T19:23:30.796Z,19.47
2018-05-04T19:25:58.876Z,20.07
2018-05-04T19:28:27.035Z,18.53
2018-05-04T19:30:54.996Z,18.57
2018-05-04T19:33:23.316Z,18.37
2018-05-04T19:35:51.355Z,18.43
2018-05-04T19:38:19.720Z,19.87
2018-05-04T19:40:47.895Z,17.67
2018-05-04T19:43:16.695Z,17.10
2018-05-04T19:45:44.975Z,17.57
2018-05-04T19:48:13.856Z,19.00
2018-05-04T19:50:41.755Z,20.23
2018-05-04T19:53:09.822Z,18.47
2018-05-04T19:55:37.824Z,20.03
2018-05-04T19:58:05.865Z,19.87
2018-05-04T20:00:33.641Z,20.70
2018-05-04T20:03:01.981Z,19.67
2018-05-04T20:05:30.022Z,18.67
2018-05-04T20:07:58.043Z,19.80
2018-05-04T20:10:27.116Z,17.70
2018-05-04T20:12:55.215Z,16.90
2018-05-04T20:15:23.159Z,19.50
2018-05-04T20:17:51.042Z,17.63
2018-05-04T20:20:19.455Z,17.17
2018-05-04T20:22:47.257Z,14.50
2018-05-04T20:25:15.376Z,14.87
2018-05-04T20:27:43.245Z,19.00
2018-05-04T20:30:12.618Z,19.60
2018-05-04T20:32:40.480Z,19.37
2018-05-04T20:35:10.986Z,21.33
2018-05-04T20:37:38.925Z,21.73
2018-05-04T20:40:08.535Z,20.47
2018-05-04T20:42:36.517Z,20.27
2018-05-04T20:45:04.326Z,20.03
2018-05-04T20:47:32.716Z,22.00
2018-05-04T20:50:00.838Z,20.10
2018-05-04T20:52:28.756Z,19.57
2018-05-04T20:54:56.638Z,20.07
2018-05-04T20:57:24.637Z,19.03
2018-05-04T20:59:52.936Z,18.57
2018-05-04T21:02:21.917Z,18.93
2018-05-04T21:04:49.878Z,17.13
2018-05-04T21:07:17.858Z,17.40
2018-05-04T21:09:45.938Z,12.50
2018-05-04T21:12:13.939Z,13.00
2018-05-04T21:14:41.948Z,10.87
2018-05-04T21:17:09.987Z,10.83
2018-05-04T21:22:10.039Z,7.37
2018-05-04T21:24:37.979Z,7.00
2018-05-04T21:27:06.749Z,8.43
2018-05-04T21:29:34.878Z,9.67
2018-05-04T21:32:03.318Z,6.97
2018-05-04T21:34:31.579Z,6.90
2018-05-04T21:36:59.599Z,8.07
2018-05-04T21:39:27.586Z,7.73
2018-05-04T21:41:56.340Z,6.13
2018-05-04T21:44:24.238Z,7.37
2018-05-04T21:46:52.199Z,7.57
2018-05-04T21:49:20.861Z,5.53
2018-05-04T21:51:48.811Z,6.43
2018-05-04T21:54:16.798Z,6.33
2018-05-04T21:56:45.097Z,5.47
2018-05-04T21:59:13.223Z,6.53
2018-05-04T22:01:41.118Z,7.47
2018-05-04T22:04:09.137Z,8.33
2018-05-04T22:06:37.257Z,8.50
2018-05-04T22:11:38.278Z,8.77
2018-05-04T22:14:06.158Z,5.33
2018-05-04T22:16:34.097Z,8.50
2018-05-04T22:19:02.098Z,10.27
2018-05-04T22:21:30.140Z,6.47
2018-05-04T22:23:58.298Z,7.70
2018-05-04T22:26:26.269Z,8.00
2018-05-04T22:28:54.297Z,9.57
2018-05-04T22:31:22.299Z,8.00
2018-05-04T22:33:51.119Z,8.67
2018-05-04T22:36:19.097Z,10.00
2018-05-04T22:38:47.295Z,9.00
2018-05-04T22:41:15.138Z,8.13
2018-05-04T22:43:44.097Z,7.97
2018-05-04T22:46:12.338Z,9.40
2018-05-04T22:48:40.691Z,7.23
2018-05-04T22:51:08.723Z,11.47
2018-05-04T22:53:36.639Z,9.47
2018-05-04T22:56:04.547Z,8.47
2018-05-04T22:58:32.856Z,8.33
2018-05-04T23:01:01.837Z,7.97
2018-05-04T23:03:29.816Z,8.80
2018-05-04T23:05:57.956Z,8.37
2018-05-04T23:08:26.097Z,10.23
2018-05-04T23:10:53.956Z,11.00
2018-05-04T23:13:22.116Z,7.97
2018-05-04T23:15:50.496Z,12.67
2018-05-04T23:18:18.396Z,7.80
2018-05-04T23:20:46.296Z,9.83
2018-05-04T23:23:14.456Z,8.07
2018-05-04T23:25:42.937Z,10.30
2018-05-04T23:28:11.137Z,7.57
2018-05-04T23:30:39.816Z,11.53
2018-05-04T23:33:07.816Z,7.33
2018-05-04T23:35:35.776Z,10.63
2018-05-04T23:38:03.697Z,10.30
2018-05-04T23:40:31.816Z,8.40
2018-05-04T23:42:59.736Z,8.90
2018-05-04T23:45:28.528Z,8.37
2018-05-04T23:47:56.476Z,10.30
2018-05-04T23:50:25.217Z,10.07
2018-05-04T23:52:53.097Z,8.83
2018-05-04T23:55:20.976Z,7.50
2018-05-04T23:57:48.956Z,8.17
